sensor_id;sensor_type;location;lat;lon;timestamp;pressure;altitude;pressure_sealevel;temperature;humidity
73842;BME280;62184;52.006;5.924;2023-05-17T00:01:38;101645.06;;;13.15;54.59
73842;BME280;62184;52.006;5.924;2023-05-17T00:04:04;101635.28;;;13.14;54.85
73842;BME280;62184;52.006;5.924;2023-05-17T00:06:30;101636.25;;;13.11;54.85
73842;BME280;62184;52.006;5.924;2023-05-17T00:08:57;101629.06;;;13.12;54.80
73842;BME280;62184;52.006;5.924;2023-05-17T00:11:26;101631.78;;;13.10;55.02
73842;BME280;62184;52.006;5.924;2023-05-17T00:13:52;101626.44;;;13.09;54.92
73842;BME280;62184;52.006;5.924;2023-05-17T00:16:19;101633.63;;;13.06;55.08
73842;BME280;62184;52.006;5.924;2023-05-17T00:18:45;101634.63;;;13.04;54.98
73842;BME280;62184;52.006;5.924;2023-05-17T00:21:11;101638.22;;;13.03;55.14
73842;BME280;62184;52.006;5.924;2023-05-17T00:23:38;101643.56;;;13.03;55.23
73842;BME280;62184;52.006;5.924;2023-05-17T00:26:04;101636.41;;;13.03;55.09
73842;BME280;62184;52.006;5.924;2023-05-17T00:28:33;101640.88;;;13.03;55.24
73842;BME280;62184;52.006;5.924;2023-05-17T00:31:00;101637.28;;;13.04;55.25
73842;BME280;62184;52.006;5.924;2023-05-17T00:33:26;101635.44;;;13.06;55.27
73842;BME280;62184;52.006;5.924;2023-05-17T00:35:53;101632.00;;;13.01;55.35
73842;BME280;62184;52.006;5.924;2023-05-17T00:38:19;101633.78;;;13.00;55.52
73842;BME280;62184;52.006;5.924;2023-05-17T00:40:45;101639.16;;;13.00;55.60
73842;BME280;62184;52.006;5.924;2023-05-17T00:43:12;101640.03;;;13.01;55.60
73842;BME280;62184;52.006;5.924;2023-05-17T00:45:41;101639.09;;;13.03;55.47
73842;BME280;62184;52.006;5.924;2023-05-17T00:48:07;101630.22;;;13.00;55.28
73842;BME280;62184;52.006;5.924;2023-05-17T00:50:33;101631.13;;;12.99;55.39
73842;BME280;62184;52.006;5.924;2023-05-17T00:53:00;101627.53;;;13.00;55.33
73842;BME280;62184;52.006;5.924;2023-05-17T00:55:27;101630.19;;;13.01;55.13
73842;BME280;62184;52.006;5.924;2023-05-17T00:57:54;101621.22;;;13.02;55.18
73842;BME280;62184;52.006;5.924;2023-05-17T01:00:21;101629.25;;;13.04;54.97
73842;BME280;62184;52.006;5.924;2023-05-17T01:02:51;101625.72;;;13.02;55.33
73842;BME280;62184;52.006;5.924;2023-05-17T01:05:17;101632.91;;;13.00;55.43
73842;BME280;62184;52.006;5.924;2023-05-17T01:07:44;101629.38;;;12.98;55.32
73842;BME280;62184;52.006;5.924;2023-05-17T01:10:10;101629.34;;;12.99;55.23
73842;BME280;62184;52.006;5.924;2023-05-17T01:12:52;101629.38;;;12.98;55.27
73842;BME280;62184;52.006;5.924;2023-05-17T01:15:31;101624.97;;;12.95;55.12
73842;BME280;62184;52.006;5.924;2023-05-17T01:18:08;101618.72;;;12.95;55.25
73842;BME280;62184;52.006;5.924;2023-05-17T01:20:44;101616.91;;;12.97;55.17
73842;BME280;62184;52.006;5.924;2023-05-17T01:23:26;101622.19;;;12.98;54.92
73842;BME280;62184;52.006;5.924;2023-05-17T01:26:06;101632.03;;;12.98;54.99
73842;BME280;62184;52.006;5.924;2023-05-17T01:28:44;101632.09;;;12.96;55.22
73842;BME280;62184;52.006;5.924;2023-05-17T01:31:12;101626.75;;;12.96;55.47
73842;BME280;62184;52.006;5.924;2023-05-17T01:33:39;101627.63;;;12.97;55.66
73842;BME280;62184;52.006;5.924;2023-05-17T01:36:07;101623.09;;;12.99;56.05
73842;BME280;62184;52.006;5.924;2023-05-17T01:38:33;101618.53;;;13.04;56.07
73842;BME280;62184;52.006;5.924;2023-05-17T01:41:04;101622.88;;;13.08;56.06
73842;BME280;62184;52.006;5.924;2023-05-17T01:43:45;101628.06;;;13.16;55.67
73842;BME280;62184;52.006;5.924;2023-05-17T01:46:18;101626.28;;;13.16;55.61
73842;BME280;62184;52.006;5.924;2023-05-17T01:48:57;101618.31;;;13.13;55.89
73842;BME280;62184;52.006;5.924;2023-05-17T01:51:33;101621.94;;;13.11;55.71
73842;BME280;62184;52.006;5.924;2023-05-17T01:54:05;101622.00;;;13.07;56.06
73842;BME280;62184;52.006;5.924;2023-05-17T01:56:40;101623.78;;;13.07;56.04
73842;BME280;62184;52.006;5.924;2023-05-17T01:59:19;101621.19;;;13.05;56.01
73842;BME280;62184;52.006;5.924;2023-05-17T02:01:47;101629.22;;;13.05;56.05
73842;BME280;62184;52.006;5.924;2023-05-17T02:04:17;101623.78;;;13.07;56.58
73842;BME280;62184;52.006;5.924;2023-05-17T02:06:43;101631.81;;;13.09;56.17
73842;BME280;62184;52.006;5.924;2023-05-17T02:09:10;101630.03;;;13.09;56.03
73842;BME280;62184;52.006;5.924;2023-05-17T02:11:36;101630.94;;;13.08;56.02
73842;BME280;62184;52.006;5.924;2023-05-17T02:14:03;101637.16;;;13.10;56.11
73842;BME280;62184;52.006;5.924;2023-05-17T02:16:32;101633.56;;;13.11;55.72
73842;BME280;62184;52.006;5.924;2023-05-17T02:18:58;101636.25;;;13.11;55.66
73842;BME280;62184;52.006;5.924;2023-05-17T02:21:25;101639.84;;;13.10;55.69
73842;BME280;62184;52.006;5.924;2023-05-17T02:23:51;101644.31;;;13.10;55.66
73842;BME280;62184;52.006;5.924;2023-05-17T02:26:17;101638.91;;;13.11;55.78
73842;BME280;62184;52.006;5.924;2023-05-17T02:28:44;101644.31;;;13.10;55.78
73842;BME280;62184;52.006;5.924;2023-05-17T02:31:10;101641.59;;;13.11;55.85
73842;BME280;62184;52.006;5.924;2023-05-17T02:33:39;101645.06;;;13.16;56.19
73842;BME280;62184;52.006;5.924;2023-05-17T02:36:06;101649.28;;;13.26;56.28
73842;BME280;62184;52.006;5.924;2023-05-17T02:38:33;101642.88;;;13.33;56.39
73842;BME280;62184;52.006;5.924;2023-05-17T02:40:59;101646.28;;;13.41;56.39
73842;BME280;62184;52.006;5.924;2023-05-17T02:43:25;101646.06;;;13.51;56.50
73842;BME280;62184;52.006;5.924;2023-05-17T02:45:52;101649.44;;;13.59;56.56
73842;BME280;62184;52.006;5.924;2023-05-17T02:48:18;101651.88;;;13.69;56.56
73842;BME280;62184;52.006;5.924;2023-05-17T02:50:47;101662.38;;;13.78;56.36
73842;BME280;62184;52.006;5.924;2023-05-17T02:53:14;101674.81;;;13.82;56.13
73842;BME280;62184;52.006;5.924;2023-05-17T02:55:40;101678.69;;;13.71;55.74
73842;BME280;62184;52.006;5.924;2023-05-17T02:58:06;101676.31;;;13.57;55.73
73842;BME280;62184;52.006;5.924;2023-05-17T03:00:33;101686.22;;;13.55;56.02
73842;BME280;62184;52.006;5.924;2023-05-17T03:02:59;101678.94;;;13.60;56.16
73842;BME280;62184;52.006;5.924;2023-05-17T03:05:25;101683.22;;;13.69;55.72
73842;BME280;62184;52.006;5.924;2023-05-17T03:07:55;101684.94;;;13.71;55.34
73842;BME280;62184;52.006;5.924;2023-05-17T03:10:21;101682.16;;;13.74;55.43
73842;BME280;62184;52.006;5.924;2023-05-17T03:12:47;101686.53;;;13.80;54.97
73842;BME280;62184;52.006;5.924;2023-05-17T03:15:14;101689.97;;;13.85;55.17
73842;BME280;62184;52.006;5.924;2023-05-17T03:17:40;101689.91;;;13.88;55.00
73842;BME280;62184;52.006;5.924;2023-05-17T03:20:07;101697.84;;;13.91;54.80
73842;BME280;62184;52.006;5.924;2023-05-17T03:22:34;101693.41;;;13.90;54.94
73842;BME280;62184;52.006;5.924;2023-05-17T03:25:04;101696.97;;;13.91;55.10
73842;BME280;62184;52.006;5.924;2023-05-17T03:27:31;101696.09;;;13.90;54.98
73842;BME280;62184;52.006;5.924;2023-05-17T03:29:57;101698.78;;;13.90;55.25
73842;BME280;62184;52.006;5.924;2023-05-17T03:32:24;101698.72;;;13.93;55.51
73842;BME280;62184;52.006;5.924;2023-05-17T03:34:50;101704.09;;;13.93;55.12
73842;BME280;62184;52.006;5.924;2023-05-17T03:37:17;101705.84;;;13.94;54.99
73842;BME280;62184;52.006;5.924;2023-05-17T03:39:43;101713.00;;;13.95;54.78
73842;BME280;62184;52.006;5.924;2023-05-17T03:42:12;101709.38;;;13.96;54.42
73842;BME280;62184;52.006;5.924;2023-05-17T03:44:39;101713.06;;;13.92;54.71
73842;BME280;62184;52.006;5.924;2023-05-17T03:47:06;101712.31;;;13.87;54.57
73842;BME280;62184;52.006;5.924;2023-05-17T03:49:32;101717.69;;;13.87;54.54
73842;BME280;62184;52.006;5.924;2023-05-17T03:51:59;101718.44;;;13.92;54.64
73842;BME280;62184;52.006;5.924;2023-05-17T03:54:25;101717.41;;;13.98;54.22
73842;BME280;62184;52.006;5.924;2023-05-17T03:56:52;101721.78;;;14.02;54.02
73842;BME280;62184;52.006;5.924;2023-05-17T03:59:21;101726.31;;;13.98;53.82
73842;BME280;62184;52.006;5.924;2023-05-17T04:01:47;101727.38;;;13.93;54.08
73842;BME280;62184;52.006;5.924;2023-05-17T04:04:13;101736.38;;;13.90;53.76
73842;BME280;62184;52.006;5.924;2023-05-17T04:06:40;101726.63;;;13.88;53.91
73842;BME280;62184;52.006;5.924;2023-05-17T04:09:06;101732.00;;;13.86;53.81
73842;BME280;62184;52.006;5.924;2023-05-17T04:11:33;101732.03;;;13.85;53.50
73842;BME280;62184;52.006;5.924;2023-05-17T04:13:59;101739.19;;;13.86;53.52
73842;BME280;62184;52.006;5.924;2023-05-17T04:16:28;101732.88;;;13.88;53.34
73842;BME280;62184;52.006;5.924;2023-05-17T04:18:54;101740.88;;;13.90;53.22
73842;BME280;62184;52.006;5.924;2023-05-17T04:21:21;101742.69;;;13.89;53.27
73842;BME280;62184;52.006;5.924;2023-05-17T04:23:47;101748.91;;;13.90;52.90
73842;BME280;62184;52.006;5.924;2023-05-17T04:26:14;101745.38;;;13.89;53.12
73842;BME280;62184;52.006;5.924;2023-05-17T04:28:40;101749.81;;;13.90;52.97
73842;BME280;62184;52.006;5.924;2023-05-17T04:31:07;101760.59;;;13.89;52.88
73842;BME280;62184;52.006;5.924;2023-05-17T04:33:36;101760.66;;;13.86;52.96
73842;BME280;62184;52.006;5.924;2023-05-17T04:36:03;101768.75;;;13.84;53.31
73842;BME280;62184;52.006;5.924;2023-05-17T04:38:29;101765.16;;;13.85;53.44
73842;BME280;62184;52.006;5.924;2023-05-17T04:41:00;101766.94;;;13.86;53.67
73842;BME280;62184;52.006;5.924;2023-05-17T04:43:27;101767.66;;;13.93;53.74
73842;BME280;62184;52.006;5.924;2023-05-17T04:45:55;101767.41;;;14.03;53.97
73842;BME280;62184;52.006;5.924;2023-05-17T04:48:21;101767.16;;;14.14;54.04
73842;BME280;62184;52.006;5.924;2023-05-17T04:50:51;101773.97;;;14.27;54.01
73842;BME280;62184;52.006;5.924;2023-05-17T04:53:17;101774.53;;;14.40;53.80
73842;BME280;62184;52.006;5.924;2023-05-17T04:55:44;101775.19;;;14.49;53.74
73842;BME280;62184;52.006;5.924;2023-05-17T04:58:11;101771.47;;;14.57;53.52
73842;BME280;62184;52.006;5.924;2023-05-17T05:00:37;101783.94;;;14.59;53.36
73842;BME280;62184;52.006;5.924;2023-05-17T05:03:04;101781.94;;;14.66;53.05
73842;BME280;62184;52.006;5.924;2023-05-17T05:05:30;101784.47;;;14.73;53.07
73842;BME280;62184;52.006;5.924;2023-05-17T05:07:59;101786.09;;;14.79;53.05
73842;BME280;62184;52.006;5.924;2023-05-17T05:10:26;101791.38;;;14.82;52.95
73842;BME280;62184;52.006;5.924;2023-05-17T05:12:52;101797.53;;;14.87;52.87
73842;BME280;62184;52.006;5.924;2023-05-17T05:15:19;101795.69;;;14.89;52.79
73842;BME280;62184;52.006;5.924;2023-05-17T05:17:46;101794.69;;;14.91;52.28
73842;BME280;62184;52.006;5.924;2023-05-17T05:20:13;101797.38;;;14.91;52.62
73842;BME280;62184;52.006;5.924;2023-05-17T05:22:39;101808.06;;;14.94;52.65
73842;BME280;62184;52.006;5.924;2023-05-17T05:25:09;101816.88;;;15.00;53.00
73842;BME280;62184;52.006;5.924;2023-05-17T05:27:36;101817.53;;;15.09;52.67
73842;BME280;62184;52.006;5.924;2023-05-17T05:30:03;101820.81;;;15.20;52.67
73842;BME280;62184;52.006;5.924;2023-05-17T05:32:30;101818.56;;;15.36;52.73
73842;BME280;62184;52.006;5.924;2023-05-17T05:34:57;101825.25;;;15.52;52.45
73842;BME280;62184;52.006;5.924;2023-05-17T05:37:23;101829.50;;;15.61;52.49
73842;BME280;62184;52.006;5.924;2023-05-17T05:39:50;101828.56;;;15.63;52.16
73842;BME280;62184;52.006;5.924;2023-05-17T05:42:19;101837.28;;;15.72;51.91
73842;BME280;62184;52.006;5.924;2023-05-17T05:44:45;101836.19;;;15.77;51.81
73842;BME280;62184;52.006;5.924;2023-05-17T05:47:12;101851.41;;;15.80;51.75
73842;BME280;62184;52.006;5.924;2023-05-17T05:49:38;101858.78;;;15.73;51.73
73842;BME280;62184;52.006;5.924;2023-05-17T05:52:05;101861.09;;;15.54;52.02
73842;BME280;62184;52.006;5.924;2023-05-17T05:54:31;101863.97;;;15.48;52.75
73842;BME280;62184;52.006;5.924;2023-05-17T05:56:58;101871.75;;;15.57;52.72
73842;BME280;62184;52.006;5.924;2023-05-17T05:59:27;101871.63;;;15.63;53.20
73842;BME280;62184;52.006;5.924;2023-05-17T06:01:53;101869.38;;;15.79;53.34
73842;BME280;62184;52.006;5.924;2023-05-17T06:04:19;101872.47;;;15.95;52.06
73842;BME280;62184;52.006;5.924;2023-05-17T06:06:46;101877.38;;;16.10;52.65
73842;BME280;62184;52.006;5.924;2023-05-17T06:09:12;101868.88;;;16.24;51.60
73842;BME280;62184;52.006;5.924;2023-05-17T06:11:39;101872.44;;;16.24;51.57
73842;BME280;62184;52.006;5.924;2023-05-17T06:14:05;101876.84;;;16.27;51.18
73842;BME280;62184;52.006;5.924;2023-05-17T06:16:34;101876.91;;;16.25;50.37
73842;BME280;62184;52.006;5.924;2023-05-17T06:19:00;101875.94;;;16.28;50.07
73842;BME280;62184;52.006;5.924;2023-05-17T06:21:27;101877.03;;;16.22;50.23
73842;BME280;62184;52.006;5.924;2023-05-17T06:23:53;101887.09;;;16.16;50.29
73842;BME280;62184;52.006;5.924;2023-05-17T06:26:20;101883.63;;;16.12;50.30
73842;BME280;62184;52.006;5.924;2023-05-17T06:28:46;101880.09;;;16.10;50.05
73842;BME280;62184;52.006;5.924;2023-05-17T06:31:13;101897.19;;;16.09;49.69
73842;BME280;62184;52.006;5.924;2023-05-17T06:33:41;101889.78;;;16.16;50.22
73842;BME280;62184;52.006;5.924;2023-05-17T06:36:08;101892.19;;;16.25;50.03
73842;BME280;62184;52.006;5.924;2023-05-17T06:38:35;101898.13;;;16.36;49.75
73842;BME280;62184;52.006;5.924;2023-05-17T06:41:01;101890.63;;;16.45;50.12
73842;BME280;62184;52.006;5.924;2023-05-17T06:43:27;101897.59;;;16.53;50.10
73842;BME280;62184;52.006;5.924;2023-05-17T06:45:54;101897.31;;;16.62;49.97
73842;BME280;62184;52.006;5.924;2023-05-17T06:48:20;101901.59;;;16.69;49.45
73842;BME280;62184;52.006;5.924;2023-05-17T06:50:49;101891.53;;;16.74;49.02
73842;BME280;62184;52.006;5.924;2023-05-17T06:53:16;101898.28;;;16.87;49.09
73842;BME280;62184;52.006;5.924;2023-05-17T06:55:42;101903.94;;;17.06;48.79
73842;BME280;62184;52.006;5.924;2023-05-17T06:58:09;101902.50;;;17.20;48.26
73842;BME280;62184;52.006;5.924;2023-05-17T07:00:35;101901.28;;;17.29;48.11
73842;BME280;62184;52.006;5.924;2023-05-17T07:03:02;101902.16;;;17.30;47.10
73842;BME280;62184;52.006;5.924;2023-05-17T07:05:29;101900.22;;;17.33;46.21
73842;BME280;62184;52.006;5.924;2023-05-17T07:07:58;101911.75;;;17.38;46.42
73842;BME280;62184;52.006;5.924;2023-05-17T07:10:24;101904.88;;;17.54;45.91
73842;BME280;62184;52.006;5.924;2023-05-17T07:12:51;101915.53;;;17.59;44.40
73842;BME280;62184;52.006;5.924;2023-05-17T07:15:18;101905.66;;;17.58;44.38
73842;BME280;62184;52.006;5.924;2023-05-17T07:17:48;101920.13;;;17.55;43.73
73842;BME280;62184;52.006;5.924;2023-05-17T07:20:14;101909.34;;;17.55;43.95
73842;BME280;62184;52.006;5.924;2023-05-17T07:22:41;101915.41;;;17.62;43.84
73842;BME280;62184;52.006;5.924;2023-05-17T07:25:10;101911.09;;;17.81;44.33
73842;BME280;62184;52.006;5.924;2023-05-17T07:27:36;101915.56;;;18.06;43.39
73842;BME280;62184;52.006;5.924;2023-05-17T07:30:04;101913.72;;;18.29;43.46
73842;BME280;62184;52.006;5.924;2023-05-17T07:32:31;101925.00;;;18.17;42.78
73842;BME280;62184;52.006;5.924;2023-05-17T07:34:58;101930.06;;;18.26;43.12
73842;BME280;62184;52.006;5.924;2023-05-17T07:37:24;101923.97;;;18.43;42.43
73842;BME280;62184;52.006;5.924;2023-05-17T07:39:51;101920.19;;;18.70;42.32
73842;BME280;62184;52.006;5.924;2023-05-17T07:42:20;101933.66;;;18.72;41.30
73842;BME280;62184;52.006;5.924;2023-05-17T07:44:46;101931.44;;;18.60;40.23
73842;BME280;62184;52.006;5.924;2023-05-17T07:47:13;101936.22;;;18.30;40.46
73842;BME280;62184;52.006;5.924;2023-05-17T07:49:39;101938.19;;;18.03;40.58
73842;BME280;62184;52.006;5.924;2023-05-17T07:52:06;101932.47;;;17.87;40.82
73842;BME280;62184;52.006;5.924;2023-05-17T07:54:33;101938.28;;;17.77;40.90
73842;BME280;62184;52.006;5.924;2023-05-17T07:57:00;101939.94;;;17.81;41.05
73842;BME280;62184;52.006;5.924;2023-05-17T07:59:29;101942.81;;;17.76;41.07
73842;BME280;62184;52.006;5.924;2023-05-17T08:01:55;101943.13;;;17.67;40.46
73842;BME280;62184;52.006;5.924;2023-05-17T08:04:22;101955.63;;;17.71;41.09
73842;BME280;62184;52.006;5.924;2023-05-17T08:06:48;101946.34;;;17.78;40.98
73842;BME280;62184;52.006;5.924;2023-05-17T08:09:15;101948.06;;;17.81;40.68
73842;BME280;62184;52.006;5.924;2023-05-17T08:11:42;101952.56;;;17.80;41.09
73842;BME280;62184;52.006;5.924;2023-05-17T08:14:08;101948.41;;;17.95;40.85
73842;BME280;62184;52.006;5.924;2023-05-17T08:16:37;101947.22;;;18.25;40.58
73842;BME280;62184;52.006;5.924;2023-05-17T08:19:04;101946.47;;;18.22;39.34
73842;BME280;62184;52.006;5.924;2023-05-17T08:21:30;101955.47;;;18.22;38.88
73842;BME280;62184;52.006;5.924;2023-05-17T08:23:56;101950.22;;;18.18;39.07
73842;BME280;62184;52.006;5.924;2023-05-17T08:26:23;101953.66;;;18.23;38.49
73842;BME280;62184;52.006;5.924;2023-05-17T08:28:49;101959.81;;;18.26;38.24
73842;BME280;62184;52.006;5.924;2023-05-17T08:31:16;101948.09;;;18.26;38.04
73842;BME280;62184;52.006;5.924;2023-05-17T08:33:45;101946.63;;;18.41;38.48
73842;BME280;62184;52.006;5.924;2023-05-17T08:36:11;101947.34;;;18.67;38.34
73842;BME280;62184;52.006;5.924;2023-05-17T08:38:37;101946.88;;;18.80;37.79
73842;BME280;62184;52.006;5.924;2023-05-17T08:41:04;101954.44;;;18.72;36.82
73842;BME280;62184;52.006;5.924;2023-05-17T08:43:30;101951.53;;;18.54;36.98
73842;BME280;62184;52.006;5.924;2023-05-17T08:45:57;101957.81;;;18.55;36.94
73842;BME280;62184;52.006;5.924;2023-05-17T08:48:24;101956.44;;;18.88;36.90
73842;BME280;62184;52.006;5.924;2023-05-17T08:50:54;101950.59;;;19.19;35.49
73842;BME280;62184;52.006;5.924;2023-05-17T08:53:22;101952.41;;;19.19;35.55
73842;BME280;62184;52.006;5.924;2023-05-17T08:55:49;101956.22;;;19.15;35.77
73842;BME280;62184;52.006;5.924;2023-05-17T08:58:20;101957.78;;;19.20;35.79
73842;BME280;62184;52.006;5.924;2023-05-17T09:00:51;101950.03;;;19.33;35.43
73842;BME280;62184;52.006;5.924;2023-05-17T09:03:21;101953.72;;;19.30;34.54
73842;BME280;62184;52.006;5.924;2023-05-17T09:05:49;101961.31;;;19.22;35.00
73842;BME280;62184;52.006;5.924;2023-05-17T09:08:19;101961.09;;;19.49;35.15
73842;BME280;62184;52.006;5.924;2023-05-17T09:10:47;101956.22;;;19.96;35.64
73842;BME280;62184;52.006;5.924;2023-05-17T09:13:14;101962.88;;;20.28;34.22
73842;BME280;62184;52.006;5.924;2023-05-17T09:15:42;101959.97;;;20.32;33.69
73842;BME280;62184;52.006;5.924;2023-05-17T09:18:09;101972.66;;;20.32;33.71
73842;BME280;62184;52.006;5.924;2023-05-17T09:20:36;101973.69;;;20.29;33.35
73842;BME280;62184;52.006;5.924;2023-05-17T09:23:04;101970.84;;;20.12;33.26
73842;BME280;62184;52.006;5.924;2023-05-17T09:25:35;101977.00;;;20.15;33.19
73842;BME280;62184;52.006;5.924;2023-05-17T09:28:03;101972.59;;;20.13;32.51
73842;BME280;62184;52.006;5.924;2023-05-17T09:30:32;101974.03;;;20.01;32.39
73842;BME280;62184;52.006;5.924;2023-05-17T09:33:04;101970.78;;;19.93;31.97
73842;BME280;62184;52.006;5.924;2023-05-17T09:35:31;101980.69;;;19.94;32.25
73842;BME280;62184;52.006;5.924;2023-05-17T09:38:05;101966.97;;;20.17;32.25
73842;BME280;62184;52.006;5.924;2023-05-17T09:40:37;101955.56;;;20.67;32.23
73842;BME280;62184;52.006;5.924;2023-05-17T09:43:03;101948.97;;;21.26;32.22
73842;BME280;62184;52.006;5.924;2023-05-17T09:45:31;101960.97;;;21.39;31.05
73842;BME280;62184;52.006;5.924;2023-05-17T09:48:10;101966.38;;;20.86;30.61
73842;BME280;62184;52.006;5.924;2023-05-17T09:50:42;101974.06;;;20.40;30.69
73842;BME280;62184;52.006;5.924;2023-05-17T09:53:21;101982.03;;;20.25;31.84
73842;BME280;62184;52.006;5.924;2023-05-17T09:55:55;101963.28;;;20.57;31.60
73842;BME280;62184;52.006;5.924;2023-05-17T09:58:23;101960.38;;;20.79;31.08
73842;BME280;62184;52.006;5.924;2023-05-17T10:00:52;101969.91;;;20.69;30.96
73842;BME280;62184;52.006;5.924;2023-05-17T10:03:30;101954.81;;;20.64;30.99
73842;BME280;62184;52.006;5.924;2023-05-17T10:05:57;101951.34;;;20.60;30.87
73842;BME280;62184;52.006;5.924;2023-05-17T10:08:28;101955.06;;;20.76;30.47
73842;BME280;62184;52.006;5.924;2023-05-17T10:11:02;101949.09;;;21.06;30.90
73842;BME280;62184;52.006;5.924;2023-05-17T10:13:35;101951.34;;;21.15;30.29
73842;BME280;62184;52.006;5.924;2023-05-17T10:16:05;101949.28;;;21.37;29.61
73842;BME280;62184;52.006;5.924;2023-05-17T10:18:33;101959.25;;;21.71;30.35
73842;BME280;62184;52.006;5.924;2023-05-17T10:21:00;101955.66;;;21.88;29.76
73842;BME280;62184;52.006;5.924;2023-05-17T10:23:28;101959.13;;;22.07;28.71
73842;BME280;62184;52.006;5.924;2023-05-17T10:25:59;101958.44;;;22.19;29.15
73842;BME280;62184;52.006;5.924;2023-05-17T10:28:26;101956.91;;;21.98;29.37
73842;BME280;62184;52.006;5.924;2023-05-17T10:30:56;101961.91;;;21.90;29.20
73842;BME280;62184;52.006;5.924;2023-05-17T10:33:26;101957.56;;;21.86;28.76
73842;BME280;62184;52.006;5.924;2023-05-17T10:35:53;101955.91;;;21.83;28.37
73842;BME280;62184;52.006;5.924;2023-05-17T10:38:21;101954.03;;;22.01;28.52
73842;BME280;62184;52.006;5.924;2023-05-17T10:40:49;101957.91;;;22.13;27.56
73842;BME280;62184;52.006;5.924;2023-05-17T10:43:21;101946.22;;;21.78;28.46
73842;BME280;62184;52.006;5.924;2023-05-17T10:45:49;101957.28;;;21.57;28.37
73842;BME280;62184;52.006;5.924;2023-05-17T10:48:17;101947.22;;;21.42;28.95
73842;BME280;62184;52.006;5.924;2023-05-17T10:50:45;101946.88;;;21.48;28.52
73842;BME280;62184;52.006;5.924;2023-05-17T10:53:12;101956.00;;;21.82;28.52
73842;BME280;62184;52.006;5.924;2023-05-17T10:55:40;101949.22;;;22.06;29.39
73842;BME280;62184;52.006;5.924;2023-05-17T10:58:16;101935.69;;;22.20;28.73
73842;BME280;62184;52.006;5.924;2023-05-17T11:00:47;101934.59;;;22.40;28.17
73842;BME280;62184;52.006;5.924;2023-05-17T11:03:17;101939.66;;;22.30;28.77
73842;BME280;62184;52.006;5.924;2023-05-17T11:06:10;101948.78;;;21.81;28.35
73842;BME280;62184;52.006;5.924;2023-05-17T11:08:42;101945.91;;;21.66;28.13
73842;BME280;62184;52.006;5.924;2023-05-17T11:11:10;101937.75;;;21.84;28.32
73842;BME280;62184;52.006;5.924;2023-05-17T11:13:45;101939.38;;;22.19;28.23
73842;BME280;62184;52.006;5.924;2023-05-17T11:16:20;101941.44;;;22.31;27.68
73842;BME280;62184;52.006;5.924;2023-05-17T11:18:49;101943.84;;;22.04;27.09
73842;BME280;62184;52.006;5.924;2023-05-17T11:21:16;101939.19;;;21.91;28.39
73842;BME280;62184;52.006;5.924;2023-05-17T11:23:43;101936.91;;;21.99;27.65
73842;BME280;62184;52.006;5.924;2023-05-17T11:26:20;101935.09;;;21.65;27.30
73842;BME280;62184;52.006;5.924;2023-05-17T11:28:58;101940.78;;;21.60;27.12
73842;BME280;62184;52.006;5.924;2023-05-17T11:31:35;101931.09;;;21.89;28.96
73842;BME280;62184;52.006;5.924;2023-05-17T11:34:03;101929.81;;;22.28;27.24
73842;BME280;62184;52.006;5.924;2023-05-17T11:36:30;101939.06;;;22.41;26.75
73842;BME280;62184;52.006;5.924;2023-05-17T11:39:10;101930.63;;;22.14;26.47
73842;BME280;62184;52.006;5.924;2023-05-17T11:41:39;101945.19;;;22.13;27.04
73842;BME280;62184;52.006;5.924;2023-05-17T11:44:14;101937.66;;;22.34;26.91
73842;BME280;62184;52.006;5.924;2023-05-17T11:46:44;101933.06;;;22.52;26.35
73842;BME280;62184;52.006;5.924;2023-05-17T11:49:11;101923.25;;;22.48;25.98
73842;BME280;62184;52.006;5.924;2023-05-17T11:51:38;101923.41;;;22.44;27.09
73842;BME280;62184;52.006;5.924;2023-05-17T11:54:06;101930.38;;;22.34;26.48
73842;BME280;62184;52.006;5.924;2023-05-17T11:56:33;101935.53;;;22.23;26.68
73842;BME280;62184;52.006;5.924;2023-05-17T11:59:00;101937.63;;;22.18;27.34
73842;BME280;62184;52.006;5.924;2023-05-17T12:01:27;101930.78;;;22.11;26.70
73842;BME280;62184;52.006;5.924;2023-05-17T12:03:57;101921.94;;;22.23;28.23
73842;BME280;62184;52.006;5.924;2023-05-17T12:06:24;101929.81;;;22.28;27.61
73842;BME280;62184;52.006;5.924;2023-05-17T12:08:50;101942.91;;;22.21;27.29
73842;BME280;62184;52.006;5.924;2023-05-17T12:11:17;101927.63;;;22.19;29.55
73842;BME280;62184;52.006;5.924;2023-05-17T12:13:44;101934.91;;;22.18;29.40
73842;BME280;62184;52.006;5.924;2023-05-17T12:16:13;101936.25;;;21.94;28.49
73842;BME280;62184;52.006;5.924;2023-05-17T12:18:43;101944.78;;;21.70;28.55
73842;BME280;62184;52.006;5.924;2023-05-17T12:21:16;101927.03;;;21.63;27.43
73842;BME280;62184;52.006;5.924;2023-05-17T12:23:44;101924.47;;;21.78;28.66
73842;BME280;62184;52.006;5.924;2023-05-17T12:26:13;101917.28;;;22.10;28.07
73842;BME280;62184;52.006;5.924;2023-05-17T12:28:43;101929.75;;;22.29;27.47
73842;BME280;62184;52.006;5.924;2023-05-17T12:31:11;101922.94;;;22.54;27.33
73842;BME280;62184;52.006;5.924;2023-05-17T12:33:42;101913.41;;;22.92;27.61
73842;BME280;62184;52.006;5.924;2023-05-17T12:36:10;101918.59;;;22.81;27.00
73842;BME280;62184;52.006;5.924;2023-05-17T12:38:42;101914.50;;;22.58;26.96
73842;BME280;62184;52.006;5.924;2023-05-17T12:41:10;101930.47;;;22.33;26.64
73842;BME280;62184;52.006;5.924;2023-05-17T12:43:38;101922.00;;;22.22;27.14
73842;BME280;62184;52.006;5.924;2023-05-17T12:46:06;101925.63;;;22.22;27.84
73842;BME280;62184;52.006;5.924;2023-05-17T12:48:34;101931.50;;;22.30;27.61
73842;BME280;62184;52.006;5.924;2023-05-17T12:51:08;101933.34;;;22.30;26.43
73842;BME280;62184;52.006;5.924;2023-05-17T12:53:36;101926.75;;;22.18;25.98
73842;BME280;62184;52.006;5.924;2023-05-17T12:56:08;101925.22;;;21.97;26.41